<?xml version="1.0" encoding="utf-8"?>
<gpx xmlns:xsi="http://www.w3.org/2001/XMLSchema-instance" xmlns:xsd="http://www.w3.org/2001/XMLSchema" version="1.1" creator="Shapelink.com" xmlns="http://www.topografix.com/GPX/1/1" xmlns:gpxtpx="http://www.garmin.com/xmlschemas/TrackPointExtension/v1">
  <metadata>
    <name>Cycling 12.18 km, 2020-05-31</name>
    <desc></desc>
    <author><name>Marian Moron</name></author> 
    <time>2020-05-31T10:54:03Z</time>
  </metadata>
  <trk>
    <name>Cycling 12.18 km, 2020-05-31</name>
    <trkseg>
      <trkpt lat="51.228658861222" lon="4.449125428126">
        <ele>0</ele>
        <time>2020-05-31T10:54:03Z</time>
      </trkpt>
      <trkpt lat="51.228801772617" lon="4.44882837359">
        <ele>0</ele>
        <time>2020-05-31T10:54:19Z</time>
      </trkpt>
      <trkpt lat="51.228790289414" lon="4.448846478494">
        <ele>0</ele>
        <time>2020-05-31T10:54:21Z</time>
      </trkpt>
      <trkpt lat="51.228794480364" lon="4.448813872903">
        <ele>0</ele>
        <time>2020-05-31T10:54:25Z</time>
      </trkpt>
      <trkpt lat="51.228820464254" lon="4.448801216234">
        <ele>0</ele>
        <time>2020-05-31T10:54:27Z</time>
      </trkpt>
      <trkpt lat="51.228833623837" lon="4.44878897866">
        <ele>0</ele>
        <time>2020-05-31T10:54:29Z</time>
      </trkpt>
      <trkpt lat="51.228875868613" lon="4.448735166862">
        <ele>0</ele>
        <time>2020-05-31T10:55:00Z</time>
      </trkpt>
      <trkpt lat="51.229008721728" lon="4.44852075786">
        <ele>0</ele>
        <time>2020-05-31T10:55:12Z</time>
      </trkpt>
      <trkpt lat="51.228658693584" lon="4.447844003254">
        <ele>0</ele>
        <time>2020-05-31T10:55:33Z</time>
      </trkpt>
      <trkpt lat="51.228343617963" lon="4.447236315504">
        <ele>0</ele>
        <time>2020-05-31T10:55:50Z</time>
      </trkpt>
      <trkpt lat="51.228307491974" lon="4.447238075703">
        <ele>0</ele>
        <time>2020-05-31T10:55:52Z</time>
      </trkpt>
      <trkpt lat="51.227892504105" lon="4.447793460397">
        <ele>0</ele>
        <time>2020-05-31T10:56:13Z</time>
      </trkpt>
      <trkpt lat="51.227489334715" lon="4.44838078013">
        <ele>0</ele>
        <time>2020-05-31T10:56:32Z</time>
      </trkpt>
      <trkpt lat="51.227111394844" lon="4.449006321327">
        <ele>3</ele>
        <time>2020-05-31T10:56:50Z</time>
      </trkpt>
      <trkpt lat="51.226940571722" lon="4.449350817417">
        <ele>3.8</ele>
        <time>2020-05-31T10:57:00Z</time>
      </trkpt>
      <trkpt lat="51.22679154154" lon="4.449343106069">
        <ele>3.6</ele>
        <time>2020-05-31T10:57:11Z</time>
      </trkpt>
      <trkpt lat="51.226590543578" lon="4.449516024666">
        <ele>2.8</ele>
        <time>2020-05-31T10:57:20Z</time>
      </trkpt>
      <trkpt lat="51.22629030392" lon="4.448852010548">
        <ele>0</ele>
        <time>2020-05-31T10:57:41Z</time>
      </trkpt>
      <trkpt lat="51.225920494492" lon="4.44952826224">
        <ele>0</ele>
        <time>2020-05-31T10:57:59Z</time>
      </trkpt>
      <trkpt lat="51.225379610485" lon="4.449716184438">
        <ele>0</ele>
        <time>2020-05-31T10:58:17Z</time>
      </trkpt>
      <trkpt lat="51.224873595182" lon="4.450136201447">
        <ele>0</ele>
        <time>2020-05-31T10:58:33Z</time>
      </trkpt>
      <trkpt lat="51.224483753013" lon="4.450754618029">
        <ele>0</ele>
        <time>2020-05-31T10:58:46Z</time>
      </trkpt>
      <trkpt lat="51.224057533398" lon="4.451316205329">
        <ele>0</ele>
        <time>2020-05-31T10:59:00Z</time>
      </trkpt>
      <trkpt lat="51.223530814802" lon="4.451271948897">
        <ele>0</ele>
        <time>2020-05-31T10:59:15Z</time>
      </trkpt>
      <trkpt lat="51.223334510704" lon="4.451248982491">
        <ele>0</ele>
        <time>2020-05-31T10:59:21Z</time>
      </trkpt>
      <trkpt lat="51.222793794335" lon="4.451080506301">
        <ele>0</ele>
        <time>2020-05-31T10:59:44Z</time>
      </trkpt>
      <trkpt lat="51.222243690238" lon="4.45118033473">
        <ele>0</ele>
        <time>2020-05-31T11:00:01Z</time>
      </trkpt>
      <trkpt lat="51.221730131225" lon="4.451517454748">
        <ele>0</ele>
        <time>2020-05-31T11:00:19Z</time>
      </trkpt>
      <trkpt lat="51.2211874032" lon="4.451687774956">
        <ele>0</ele>
        <time>2020-05-31T11:00:43Z</time>
      </trkpt>
      <trkpt lat="51.220627743737" lon="4.451803864271">
        <ele>0</ele>
        <time>2020-05-31T11:00:58Z</time>
      </trkpt>
      <trkpt lat="51.220078645468" lon="4.451934621911">
        <ele>0</ele>
        <time>2020-05-31T11:01:13Z</time>
      </trkpt>
      <trkpt lat="51.219512951037" lon="4.452043251335">
        <ele>0</ele>
        <time>2020-05-31T11:01:28Z</time>
      </trkpt>
      <trkpt lat="51.219027303751" lon="4.452292193765">
        <ele>0</ele>
        <time>2020-05-31T11:01:43Z</time>
      </trkpt>
      <trkpt lat="51.218984556061" lon="4.452454299711">
        <ele>0</ele>
        <time>2020-05-31T11:01:47Z</time>
      </trkpt>
      <trkpt lat="51.219290830687" lon="4.453205820865">
        <ele>0</ele>
        <time>2020-05-31T11:02:02Z</time>
      </trkpt>
      <trkpt lat="51.21952191967" lon="4.453818370117">
        <ele>0</ele>
        <time>2020-05-31T11:02:24Z</time>
      </trkpt>
      <trkpt lat="51.219526026801" lon="4.453814514443">
        <ele>0</ele>
        <time>2020-05-31T11:02:39Z</time>
      </trkpt>
      <trkpt lat="51.219481518912" lon="4.453849634604">
        <ele>0</ele>
        <time>2020-05-31T11:02:48Z</time>
      </trkpt>
      <trkpt lat="51.219353778756" lon="4.453909565189">
        <ele>0</ele>
        <time>2020-05-31T11:02:55Z</time>
      </trkpt>
      <trkpt lat="51.2193350033" lon="4.453924820247">
        <ele>0</ele>
        <time>2020-05-31T11:02:58Z</time>
      </trkpt>
      <trkpt lat="51.219329555065" lon="4.453925742256">
        <ele>0</ele>
        <time>2020-05-31T11:03:00Z</time>
      </trkpt>
      <trkpt lat="51.219270881765" lon="4.453966226833">
        <ele>0</ele>
        <time>2020-05-31T11:03:05Z</time>
      </trkpt>
      <trkpt lat="51.218815744595" lon="4.454450533015">
        <ele>0</ele>
        <time>2020-05-31T11:03:23Z</time>
      </trkpt>
      <trkpt lat="51.2183291753" lon="4.454890498946">
        <ele>0</ele>
        <time>2020-05-31T11:03:44Z</time>
      </trkpt>
      <trkpt lat="51.218086519295" lon="4.455586867198">
        <ele>1</ele>
        <time>2020-05-31T11:04:05Z</time>
      </trkpt>
      <trkpt lat="51.218030360565" lon="4.456452298373">
        <ele>0</ele>
        <time>2020-05-31T11:04:21Z</time>
      </trkpt>
      <trkpt lat="51.217926927919" lon="4.457303480318">
        <ele>0</ele>
        <time>2020-05-31T11:04:39Z</time>
      </trkpt>
      <trkpt lat="51.21791343306" lon="4.458183579818">
        <ele>0</ele>
        <time>2020-05-31T11:04:59Z</time>
      </trkpt>
      <trkpt lat="51.217919970942" lon="4.459054710685">
        <ele>0</ele>
        <time>2020-05-31T11:05:17Z</time>
      </trkpt>
      <trkpt lat="51.217813436993" lon="4.459927182656">
        <ele>0</ele>
        <time>2020-05-31T11:05:33Z</time>
      </trkpt>
      <trkpt lat="51.217739843911" lon="4.460814658228">
        <ele>0</ele>
        <time>2020-05-31T11:05:48Z</time>
      </trkpt>
      <trkpt lat="51.21774579506" lon="4.461715125745">
        <ele>0</ele>
        <time>2020-05-31T11:06:06Z</time>
      </trkpt>
      <trkpt lat="51.217772198045" lon="4.462609809751">
        <ele>0</ele>
        <time>2020-05-31T11:06:24Z</time>
      </trkpt>
      <trkpt lat="51.217740095368" lon="4.463479599514">
        <ele>0</ele>
        <time>2020-05-31T11:06:41Z</time>
      </trkpt>
      <trkpt lat="51.217668513942" lon="4.464366907448">
        <ele>0</ele>
        <time>2020-05-31T11:06:58Z</time>
      </trkpt>
      <trkpt lat="51.217605230597" lon="4.465275421589">
        <ele>0</ele>
        <time>2020-05-31T11:07:15Z</time>
      </trkpt>
      <trkpt lat="51.217520154312" lon="4.46613280614">
        <ele>0</ele>
        <time>2020-05-31T11:07:30Z</time>
      </trkpt>
      <trkpt lat="51.217531553696" lon="4.466987257026">
        <ele>0</ele>
        <time>2020-05-31T11:07:47Z</time>
      </trkpt>
      <trkpt lat="51.217488219273" lon="4.467850508907">
        <ele>0</ele>
        <time>2020-05-31T11:08:03Z</time>
      </trkpt>
      <trkpt lat="51.217501797951" lon="4.468356859486">
        <ele>0</ele>
        <time>2020-05-31T11:08:12Z</time>
      </trkpt>
      <trkpt lat="51.217098963837" lon="4.467786890286">
        <ele>0</ele>
        <time>2020-05-31T11:08:29Z</time>
      </trkpt>
      <trkpt lat="51.216721191604" lon="4.467159505071">
        <ele>0</ele>
        <time>2020-05-31T11:08:47Z</time>
      </trkpt>
      <trkpt lat="51.216300168767" lon="4.466585177283">
        <ele>0</ele>
        <time>2020-05-31T11:09:05Z</time>
      </trkpt>
      <trkpt lat="51.215883085423" lon="4.465998528102">
        <ele>0</ele>
        <time>2020-05-31T11:09:20Z</time>
      </trkpt>
      <trkpt lat="51.215454435057" lon="4.466381078018">
        <ele>0</ele>
        <time>2020-05-31T11:09:38Z</time>
      </trkpt>
      <trkpt lat="51.215373130627" lon="4.466904862949">
        <ele>0</ele>
        <time>2020-05-31T11:09:50Z</time>
      </trkpt>
      <trkpt lat="51.214869546075" lon="4.467242318243">
        <ele>0</ele>
        <time>2020-05-31T11:10:09Z</time>
      </trkpt>
      <trkpt lat="51.214686904474" lon="4.468036503268">
        <ele>0</ele>
        <time>2020-05-31T11:10:25Z</time>
      </trkpt>
      <trkpt lat="51.214558745223" lon="4.468886763204">
        <ele>0</ele>
        <time>2020-05-31T11:10:44Z</time>
      </trkpt>
      <trkpt lat="51.214411642878" lon="4.46968924631">
        <ele>0</ele>
        <time>2020-05-31T11:11:04Z</time>
      </trkpt>
      <trkpt lat="51.214204693767" lon="4.470512600347">
        <ele>0</ele>
        <time>2020-05-31T11:11:23Z</time>
      </trkpt>
      <trkpt lat="51.214395130535" lon="4.47131868767">
        <ele>0</ele>
        <time>2020-05-31T11:11:42Z</time>
      </trkpt>
      <trkpt lat="51.214381216581" lon="4.472192668383">
        <ele>0</ele>
        <time>2020-05-31T11:12:03Z</time>
      </trkpt>
      <trkpt lat="51.214406697557" lon="4.472457201147">
        <ele>0</ele>
        <time>2020-05-31T11:12:09Z</time>
      </trkpt>
      <trkpt lat="51.214447098315" lon="4.472498943009">
        <ele>0</ele>
        <time>2020-05-31T11:12:11Z</time>
      </trkpt>
      <trkpt lat="51.214611467374" lon="4.472551581341">
        <ele>0</ele>
        <time>2020-05-31T11:12:17Z</time>
      </trkpt>
      <trkpt lat="51.215047493812" lon="4.473071007684">
        <ele>0</ele>
        <time>2020-05-31T11:12:37Z</time>
      </trkpt>
      <trkpt lat="51.215595083339" lon="4.473304862694">
        <ele>0</ele>
        <time>2020-05-31T11:12:57Z</time>
      </trkpt>
      <trkpt lat="51.215622408333" lon="4.473323051417">
        <ele>0</ele>
        <time>2020-05-31T11:12:58Z</time>
      </trkpt>
      <trkpt lat="51.215653840458" lon="4.473424975321">
        <ele>0</ele>
        <time>2020-05-31T11:13:01Z</time>
      </trkpt>
      <trkpt lat="51.21565283463" lon="4.474291077048">
        <ele>0</ele>
        <time>2020-05-31T11:13:19Z</time>
      </trkpt>
      <trkpt lat="51.215666078032" lon="4.475152065816">
        <ele>0</ele>
        <time>2020-05-31T11:13:36Z</time>
      </trkpt>
      <trkpt lat="51.215983165309" lon="4.475851116276">
        <ele>0</ele>
        <time>2020-05-31T11:13:54Z</time>
      </trkpt>
      <trkpt lat="51.215852575307" lon="4.47667053082">
        <ele>0</ele>
        <time>2020-05-31T11:14:17Z</time>
      </trkpt>
      <trkpt lat="51.215807732142" lon="4.477549037759">
        <ele>0</ele>
        <time>2020-05-31T11:14:38Z</time>
      </trkpt>
      <trkpt lat="51.215811168721" lon="4.478113223448">
        <ele>0</ele>
        <time>2020-05-31T11:14:55Z</time>
      </trkpt>
      <trkpt lat="51.215903369621" lon="4.478106937023">
        <ele>0</ele>
        <time>2020-05-31T11:15:00Z</time>
      </trkpt>
      <trkpt lat="51.216327326123" lon="4.477616428235">
        <ele>0</ele>
        <time>2020-05-31T11:15:19Z</time>
      </trkpt>
      <trkpt lat="51.216873658365" lon="4.477625564506">
        <ele>0</ele>
        <time>2020-05-31T11:15:37Z</time>
      </trkpt>
      <trkpt lat="51.217135676559" lon="4.478184385779">
        <ele>0</ele>
        <time>2020-05-31T11:16:01Z</time>
      </trkpt>
      <trkpt lat="51.217084882245" lon="4.479078231595">
        <ele>0</ele>
        <time>2020-05-31T11:16:22Z</time>
      </trkpt>
      <trkpt lat="51.217060323278" lon="4.479942237847">
        <ele>0</ele>
        <time>2020-05-31T11:16:42Z</time>
      </trkpt>
      <trkpt lat="51.216989160947" lon="4.480845136115">
        <ele>0</ele>
        <time>2020-05-31T11:17:00Z</time>
      </trkpt>
      <trkpt lat="51.21694699999" lon="4.481356599653">
        <ele>0</ele>
        <time>2020-05-31T11:17:13Z</time>
      </trkpt>
      <trkpt lat="51.216444337447" lon="4.481286275512">
        <ele>0</ele>
        <time>2020-05-31T11:17:28Z</time>
      </trkpt>
      <trkpt lat="51.21656562354" lon="4.480446073856">
        <ele>0</ele>
        <time>2020-05-31T11:17:49Z</time>
      </trkpt>
      <trkpt lat="51.216046448654" lon="4.480343395581">
        <ele>0</ele>
        <time>2020-05-31T11:18:06Z</time>
      </trkpt>
      <trkpt lat="51.215501457516" lon="4.48029570257">
        <ele>0</ele>
        <time>2020-05-31T11:18:23Z</time>
      </trkpt>
      <trkpt lat="51.21493366761" lon="4.480347754169">
        <ele>0</ele>
        <time>2020-05-31T11:18:39Z</time>
      </trkpt>
      <trkpt lat="51.214482050838" lon="4.48006771489">
        <ele>3.2</ele>
        <time>2020-05-31T11:19:01Z</time>
      </trkpt>
      <trkpt lat="51.214187343234" lon="4.479287443819">
        <ele>0</ele>
        <time>2020-05-31T11:19:20Z</time>
      </trkpt>
      <trkpt lat="51.214018447949" lon="4.478438944082">
        <ele>0</ele>
        <time>2020-05-31T11:19:36Z</time>
      </trkpt>
      <trkpt lat="51.213958265907" lon="4.478137782415">
        <ele>0</ele>
        <time>2020-05-31T11:19:47Z</time>
      </trkpt>
      <trkpt lat="51.213954326414" lon="4.478137530958">
        <ele>0</ele>
        <time>2020-05-31T11:19:51Z</time>
      </trkpt>
      <trkpt lat="51.213979220657" lon="4.478089418852">
        <ele>0</ele>
        <time>2020-05-31T11:19:57Z</time>
      </trkpt>
      <trkpt lat="51.214120120396" lon="4.477306130297">
        <ele>0</ele>
        <time>2020-05-31T11:20:18Z</time>
      </trkpt>
      <trkpt lat="51.213861790238" lon="4.475878525089">
        <ele>0</ele>
        <time>2020-05-31T11:20:53Z</time>
      </trkpt>
      <trkpt lat="51.21393538332" lon="4.475034635397">
        <ele>0</ele>
        <time>2020-05-31T11:21:13Z</time>
      </trkpt>
      <trkpt lat="51.213771517175" lon="4.474297698749">
        <ele>0</ele>
        <time>2020-05-31T11:21:34Z</time>
      </trkpt>
      <trkpt lat="51.213683758682" lon="4.47407130363">
        <ele>0</ele>
        <time>2020-05-31T11:21:59Z</time>
      </trkpt>
      <trkpt lat="51.213614775645" lon="4.473228755042">
        <ele>0</ele>
        <time>2020-05-31T11:22:20Z</time>
      </trkpt>
      <trkpt lat="51.213501787633" lon="4.472364916428">
        <ele>1.8</ele>
        <time>2020-05-31T11:22:37Z</time>
      </trkpt>
      <trkpt lat="51.213414699692" lon="4.471537119984">
        <ele>2.2</ele>
        <time>2020-05-31T11:22:53Z</time>
      </trkpt>
      <trkpt lat="51.213472367164" lon="4.47070848535">
        <ele>0</ele>
        <time>2020-05-31T11:23:10Z</time>
      </trkpt>
      <trkpt lat="51.213284780242" lon="4.469902900941">
        <ele>0</ele>
        <time>2020-05-31T11:23:26Z</time>
      </trkpt>
      <trkpt lat="51.213216886852" lon="4.4690195325">
        <ele>0</ele>
        <time>2020-05-31T11:23:45Z</time>
      </trkpt>
      <trkpt lat="51.212836348592" lon="4.468401702651">
        <ele>0</ele>
        <time>2020-05-31T11:24:06Z</time>
      </trkpt>
      <trkpt lat="51.212760827673" lon="4.467518418029">
        <ele>0</ele>
        <time>2020-05-31T11:24:26Z</time>
      </trkpt>
      <trkpt lat="51.212341648854" lon="4.466973091615">
        <ele>0</ele>
        <time>2020-05-31T11:24:45Z</time>
      </trkpt>
      <trkpt lat="51.212184991143" lon="4.466163735351">
        <ele>0</ele>
        <time>2020-05-31T11:25:07Z</time>
      </trkpt>
      <trkpt lat="51.212362687423" lon="4.465405173401">
        <ele>0</ele>
        <time>2020-05-31T11:25:25Z</time>
      </trkpt>
      <trkpt lat="51.212857135704" lon="4.465034274326">
        <ele>0.4</ele>
        <time>2020-05-31T11:25:44Z</time>
      </trkpt>
      <trkpt lat="51.213103479745" lon="4.464825900292">
        <ele>0</ele>
        <time>2020-05-31T11:25:56Z</time>
      </trkpt>
      <trkpt lat="51.213122506658" lon="4.464828079586">
        <ele>1.2</ele>
        <time>2020-05-31T11:26:04Z</time>
      </trkpt>
      <trkpt lat="51.213148155272" lon="4.464832689631">
        <ele>2.8</ele>
        <time>2020-05-31T11:26:07Z</time>
      </trkpt>
      <trkpt lat="51.213660121724" lon="4.464540748054">
        <ele>1.4</ele>
        <time>2020-05-31T11:26:39Z</time>
      </trkpt>
      <trkpt lat="51.213862879885" lon="4.464410660966">
        <ele>0</ele>
        <time>2020-05-31T11:26:48Z</time>
      </trkpt>
      <trkpt lat="51.213702282681" lon="4.463699372932">
        <ele>0</ele>
        <time>2020-05-31T11:27:10Z</time>
      </trkpt>
      <trkpt lat="51.213711335133" lon="4.463689147014">
        <ele>0</ele>
        <time>2020-05-31T11:27:32Z</time>
      </trkpt>
      <trkpt lat="51.213641430087" lon="4.463703228606">
        <ele>0</ele>
        <time>2020-05-31T11:27:41Z</time>
      </trkpt>
      <trkpt lat="51.213069365412" lon="4.463845469449">
        <ele>0</ele>
        <time>2020-05-31T11:28:00Z</time>
      </trkpt>
      <trkpt lat="51.212531079794" lon="4.463972539053">
        <ele>0</ele>
        <time>2020-05-31T11:28:17Z</time>
      </trkpt>
      <trkpt lat="51.211983993181" lon="4.464107990557">
        <ele>0</ele>
        <time>2020-05-31T11:28:34Z</time>
      </trkpt>
      <trkpt lat="51.211447551581" lon="4.464220810931">
        <ele>0</ele>
        <time>2020-05-31T11:28:56Z</time>
      </trkpt>
      <trkpt lat="51.21090365009" lon="4.464165322753">
        <ele>4.8</ele>
        <time>2020-05-31T11:29:23Z</time>
      </trkpt>
      <trkpt lat="51.210359748599" lon="4.463945297878">
        <ele>3</ele>
        <time>2020-05-31T11:29:40Z</time>
      </trkpt>
      <trkpt lat="51.209827497949" lon="4.463773217471">
        <ele>1.2</ele>
        <time>2020-05-31T11:30:06Z</time>
      </trkpt>
      <trkpt lat="51.209828755234" lon="4.463658804536">
        <ele>6</ele>
        <time>2020-05-31T11:30:17Z</time>
      </trkpt>
      <trkpt lat="51.209836969496" lon="4.462794546827">
        <ele>5.2</ele>
        <time>2020-05-31T11:30:39Z</time>
      </trkpt>
      <trkpt lat="51.209877370254" lon="4.46189743207">
        <ele>6.6</ele>
        <time>2020-05-31T11:30:57Z</time>
      </trkpt>
      <trkpt lat="51.209866725241" lon="4.461009621222">
        <ele>4.4</ele>
        <time>2020-05-31T11:31:13Z</time>
      </trkpt>
      <trkpt lat="51.209795479091" lon="4.460104292203">
        <ele>1.4</ele>
        <time>2020-05-31T11:31:29Z</time>
      </trkpt>
      <trkpt lat="51.20969917106" lon="4.459223270694">
        <ele>1</ele>
        <time>2020-05-31T11:31:46Z</time>
      </trkpt>
      <trkpt lat="51.209558019864" lon="4.458348787067">
        <ele>2.4</ele>
        <time>2020-05-31T11:32:02Z</time>
      </trkpt>
      <trkpt lat="51.209447797879" lon="4.457494084724">
        <ele>1.6</ele>
        <time>2020-05-31T11:32:18Z</time>
      </trkpt>
      <trkpt lat="51.20948375623" lon="4.456667042651">
        <ele>2.6</ele>
        <time>2020-05-31T11:32:34Z</time>
      </trkpt>
      <trkpt lat="51.209755665066" lon="4.455871935617">
        <ele>3.6</ele>
        <time>2020-05-31T11:32:49Z</time>
      </trkpt>
      <trkpt lat="51.210030423748" lon="4.455077163859">
        <ele>9.6</ele>
        <time>2020-05-31T11:33:07Z</time>
      </trkpt>
      <trkpt lat="51.210248101691" lon="4.454298485349">
        <ele>14.2</ele>
        <time>2020-05-31T11:33:22Z</time>
      </trkpt>
      <trkpt lat="51.210500396881" lon="4.453485943963">
        <ele>17</ele>
        <time>2020-05-31T11:33:39Z</time>
      </trkpt>
      <trkpt lat="51.210747830569" lon="4.45269242949">
        <ele>20.2</ele>
        <time>2020-05-31T11:33:57Z</time>
      </trkpt>
      <trkpt lat="51.21080055272" lon="4.452641802814">
        <ele>16.2</ele>
        <time>2020-05-31T11:34:01Z</time>
      </trkpt>
      <trkpt lat="51.210812035923" lon="4.452742972347">
        <ele>8.2</ele>
        <time>2020-05-31T11:35:01Z</time>
      </trkpt>
      <trkpt lat="51.210826452791" lon="4.452647921601">
        <ele>8.4</ele>
        <time>2020-05-31T11:35:07Z</time>
      </trkpt>
      <trkpt lat="51.21114001967" lon="4.451905452899">
        <ele>9.6</ele>
        <time>2020-05-31T11:35:28Z</time>
      </trkpt>
      <trkpt lat="51.211461381716" lon="4.451191566476">
        <ele>13.8</ele>
        <time>2020-05-31T11:35:48Z</time>
      </trkpt>
      <trkpt lat="51.211479821896" lon="4.45110405944">
        <ele>14.4</ele>
        <time>2020-05-31T11:35:56Z</time>
      </trkpt>
      <trkpt lat="51.211375718698" lon="4.450941115304">
        <ele>27</ele>
        <time>2020-05-31T11:38:21Z</time>
      </trkpt>
      <trkpt lat="51.211381921304" lon="4.450948072281">
        <ele>27.2</ele>
        <time>2020-05-31T11:38:24Z</time>
      </trkpt>
      <trkpt lat="51.211405809719" lon="4.451001716441">
        <ele>24</ele>
        <time>2020-05-31T11:42:41Z</time>
      </trkpt>
      <trkpt lat="51.211477055869" lon="4.450888728429">
        <ele>20.8</ele>
        <time>2020-05-31T11:42:57Z</time>
      </trkpt>
      <trkpt lat="51.211480660086" lon="4.450868276593">
        <ele>19.6</ele>
        <time>2020-05-31T11:43:02Z</time>
      </trkpt>
      <trkpt lat="51.211411257954" lon="4.450963914072">
        <ele>19.6</ele>
        <time>2020-05-31T11:43:08Z</time>
      </trkpt>
      <trkpt lat="51.211390470842" lon="4.450947988462">
        <ele>19.6</ele>
        <time>2020-05-31T11:43:10Z</time>
      </trkpt>
      <trkpt lat="51.211855079559" lon="4.450758557522">
        <ele>10</ele>
        <time>2020-05-31T11:43:33Z</time>
      </trkpt>
      <trkpt lat="51.212236456009" lon="4.451105065268">
        <ele>0</ele>
        <time>2020-05-31T11:43:49Z</time>
      </trkpt>
      <trkpt lat="51.212688910971" lon="4.450594523739">
        <ele>6</ele>
        <time>2020-05-31T11:44:06Z</time>
      </trkpt>
      <trkpt lat="51.213125356504" lon="4.450061937813">
        <ele>10.4</ele>
        <time>2020-05-31T11:44:20Z</time>
      </trkpt>
      <trkpt lat="51.213281008387" lon="4.449964707773">
        <ele>12.6</ele>
        <time>2020-05-31T11:44:27Z</time>
      </trkpt>
      <trkpt lat="51.213337167117" lon="4.450290596045">
        <ele>8.8</ele>
        <time>2020-05-31T11:44:36Z</time>
      </trkpt>
      <trkpt lat="51.213333395262" lon="4.450383802773">
        <ele>6.4</ele>
        <time>2020-05-31T11:44:40Z</time>
      </trkpt>
      <trkpt lat="51.213297101635" lon="4.450431160508">
        <ele>4.2</ele>
        <time>2020-05-31T11:44:47Z</time>
      </trkpt>
      <trkpt lat="51.213291485762" lon="4.451305392678">
        <ele>0</ele>
        <time>2020-05-31T11:45:08Z</time>
      </trkpt>
      <trkpt lat="51.213349153234" lon="4.452215164104">
        <ele>0</ele>
        <time>2020-05-31T11:45:24Z</time>
      </trkpt>
      <trkpt lat="51.213397516797" lon="4.453102639676">
        <ele>0</ele>
        <time>2020-05-31T11:45:40Z</time>
      </trkpt>
      <trkpt lat="51.213446550912" lon="4.453974105819">
        <ele>1.6</ele>
        <time>2020-05-31T11:45:54Z</time>
      </trkpt>
      <trkpt lat="51.21349198081" lon="4.454850601102">
        <ele>5.4</ele>
        <time>2020-05-31T11:46:10Z</time>
      </trkpt>
      <trkpt lat="51.213470858422" lon="4.455747883497">
        <ele>4.4</ele>
        <time>2020-05-31T11:46:27Z</time>
      </trkpt>
      <trkpt lat="51.213503296375" lon="4.456617757079">
        <ele>11.4</ele>
        <time>2020-05-31T11:46:43Z</time>
      </trkpt>
      <trkpt lat="51.213663223027" lon="4.457467346463">
        <ele>12.8</ele>
        <time>2020-05-31T11:47:01Z</time>
      </trkpt>
      <trkpt lat="51.21393203056" lon="4.458190788252">
        <ele>2</ele>
        <time>2020-05-31T11:47:19Z</time>
      </trkpt>
      <trkpt lat="51.21406614096" lon="4.459025625492">
        <ele>0.6</ele>
        <time>2020-05-31T11:47:41Z</time>
      </trkpt>
      <trkpt lat="51.214335451407" lon="4.459773626248">
        <ele>0</ele>
        <time>2020-05-31T11:47:58Z</time>
      </trkpt>
      <trkpt lat="51.214669051027" lon="4.460483992273">
        <ele>0</ele>
        <time>2020-05-31T11:48:15Z</time>
      </trkpt>
      <trkpt lat="51.214958058939" lon="4.46121682179">
        <ele>0</ele>
        <time>2020-05-31T11:48:32Z</time>
      </trkpt>
      <trkpt lat="51.215279420985" lon="4.461903802314">
        <ele>0</ele>
        <time>2020-05-31T11:48:48Z</time>
      </trkpt>
      <trkpt lat="51.215516042022" lon="4.462504365449">
        <ele>0</ele>
        <time>2020-05-31T11:49:02Z</time>
      </trkpt>
      <trkpt lat="51.21568468585" lon="4.462719109727">
        <ele>0</ele>
        <time>2020-05-31T11:49:11Z</time>
      </trkpt>
      <trkpt lat="51.21619430537" lon="4.462335386345">
        <ele>0</ele>
        <time>2020-05-31T11:49:35Z</time>
      </trkpt>
      <trkpt lat="51.216689843298" lon="4.461924505607">
        <ele>0</ele>
        <time>2020-05-31T11:49:53Z</time>
      </trkpt>
      <trkpt lat="51.217211616573" lon="4.461613704755">
        <ele>0.4</ele>
        <time>2020-05-31T11:50:10Z</time>
      </trkpt>
      <trkpt lat="51.217706735406" lon="4.46125956948">
        <ele>0</ele>
        <time>2020-05-31T11:50:29Z</time>
      </trkpt>
      <trkpt lat="51.218041508492" lon="4.460605194547">
        <ele>0</ele>
        <time>2020-05-31T11:50:49Z</time>
      </trkpt>
      <trkpt lat="51.218172685227" lon="4.459767004547">
        <ele>6.2</ele>
        <time>2020-05-31T11:51:08Z</time>
      </trkpt>
      <trkpt lat="51.218153071581" lon="4.458871314713">
        <ele>6.6</ele>
        <time>2020-05-31T11:51:26Z</time>
      </trkpt>
      <trkpt lat="51.218104288923" lon="4.457996328172">
        <ele>3.6</ele>
        <time>2020-05-31T11:51:43Z</time>
      </trkpt>
      <trkpt lat="51.218141169283" lon="4.457103152908">
        <ele>0</ele>
        <time>2020-05-31T11:51:59Z</time>
      </trkpt>
      <trkpt lat="51.218183497878" lon="4.456215090603">
        <ele>2</ele>
        <time>2020-05-31T11:52:15Z</time>
      </trkpt>
      <trkpt lat="51.218266981602" lon="4.455340020243">
        <ele>0</ele>
        <time>2020-05-31T11:52:29Z</time>
      </trkpt>
      <trkpt lat="51.218646178758" lon="4.454676341401">
        <ele>0</ele>
        <time>2020-05-31T11:52:45Z</time>
      </trkpt>
      <trkpt lat="51.218729494844" lon="4.45454985853">
        <ele>0.4</ele>
        <time>2020-05-31T11:52:49Z</time>
      </trkpt>
      <trkpt lat="51.218416849974" lon="4.453892633751">
        <ele>0.6</ele>
        <time>2020-05-31T11:53:06Z</time>
      </trkpt>
      <trkpt lat="51.218320039029" lon="4.453646708805">
        <ele>0.6</ele>
        <time>2020-05-31T11:53:13Z</time>
      </trkpt>
      <trkpt lat="51.218335210268" lon="4.45359013098">
        <ele>1.2</ele>
        <time>2020-05-31T11:53:15Z</time>
      </trkpt>
      <trkpt lat="51.218619440497" lon="4.453037260856">
        <ele>0.8</ele>
        <time>2020-05-31T11:53:38Z</time>
      </trkpt>
      <trkpt lat="51.218707618085" lon="4.452946149603">
        <ele>0.4</ele>
        <time>2020-05-31T11:53:43Z</time>
      </trkpt>
      <trkpt lat="51.218983885509" lon="4.453699011861">
        <ele>0</ele>
        <time>2020-05-31T11:54:01Z</time>
      </trkpt>
      <trkpt lat="51.219051024528" lon="4.453788865829">
        <ele>0</ele>
        <time>2020-05-31T11:54:04Z</time>
      </trkpt>
      <trkpt lat="51.219200389986" lon="4.453698006033">
        <ele>0</ele>
        <time>2020-05-31T11:54:09Z</time>
      </trkpt>
      <trkpt lat="51.219368949995" lon="4.453870840811">
        <ele>0</ele>
        <time>2020-05-31T11:54:16Z</time>
      </trkpt>
      <trkpt lat="51.219279934217" lon="4.453178160595">
        <ele>0</ele>
        <time>2020-05-31T11:54:38Z</time>
      </trkpt>
      <trkpt lat="51.21900308006" lon="4.452427226174">
        <ele>0.6</ele>
        <time>2020-05-31T11:54:57Z</time>
      </trkpt>
      <trkpt lat="51.219414128436" lon="4.452063619352">
        <ele>1.6</ele>
        <time>2020-05-31T11:55:13Z</time>
      </trkpt>
      <trkpt lat="51.220073867785" lon="4.451950798978">
        <ele>0</ele>
        <time>2020-05-31T11:55:32Z</time>
      </trkpt>
      <trkpt lat="51.220642747338" lon="4.451849545626">
        <ele>0</ele>
        <time>2020-05-31T11:55:48Z</time>
      </trkpt>
      <trkpt lat="51.221198802584" lon="4.45168827787">
        <ele>0</ele>
        <time>2020-05-31T11:56:03Z</time>
      </trkpt>
      <trkpt lat="51.221735411822" lon="4.451482837501">
        <ele>0</ele>
        <time>2020-05-31T11:56:17Z</time>
      </trkpt>
      <trkpt lat="51.222254083794" lon="4.451150411347">
        <ele>0</ele>
        <time>2020-05-31T11:56:29Z</time>
      </trkpt>
      <trkpt lat="51.222819526768" lon="4.451019150793">
        <ele>0</ele>
        <time>2020-05-31T11:56:42Z</time>
      </trkpt>
      <trkpt lat="51.223354040531" lon="4.451221154583">
        <ele>0</ele>
        <time>2020-05-31T11:56:57Z</time>
      </trkpt>
      <trkpt lat="51.223899534583" lon="4.451399018501">
        <ele>0</ele>
        <time>2020-05-31T11:57:12Z</time>
      </trkpt>
      <trkpt lat="51.224366154956" lon="4.450968188841">
        <ele>0</ele>
        <time>2020-05-31T11:57:27Z</time>
      </trkpt>
      <trkpt lat="51.224740825886" lon="4.45033208645">
        <ele>0</ele>
        <time>2020-05-31T11:57:43Z</time>
      </trkpt>
      <trkpt lat="51.225186323871" lon="4.449815845229">
        <ele>0.2</ele>
        <time>2020-05-31T11:58:01Z</time>
      </trkpt>
      <trkpt lat="51.225513553247" lon="4.449750801685">
        <ele>1</ele>
        <time>2020-05-31T11:58:12Z</time>
      </trkpt>
      <trkpt lat="51.225556971489" lon="4.449767314028">
        <ele>1.2</ele>
        <time>2020-05-31T11:59:55Z</time>
      </trkpt>
      <trkpt lat="51.225600389731" lon="4.449765134734">
        <ele>1.2</ele>
        <time>2020-05-31T11:59:59Z</time>
      </trkpt>
      <trkpt lat="51.22607991823" lon="4.449344447173">
        <ele>1.2</ele>
        <time>2020-05-31T12:00:16Z</time>
      </trkpt>
      <trkpt lat="51.226361298613" lon="4.448539281859">
        <ele>0</ele>
        <time>2020-05-31T12:00:31Z</time>
      </trkpt>
      <trkpt lat="51.226519381247" lon="4.448153463002">
        <ele>0</ele>
        <time>2020-05-31T12:00:38Z</time>
      </trkpt>
      <trkpt lat="51.226951803468" lon="4.447541584302">
        <ele>0</ele>
        <time>2020-05-31T12:00:52Z</time>
      </trkpt>
      <trkpt lat="51.227363438577" lon="4.446942278452">
        <ele>0</ele>
        <time>2020-05-31T12:01:06Z</time>
      </trkpt>
      <trkpt lat="51.227760405361" lon="4.446328807191">
        <ele>0</ele>
        <time>2020-05-31T12:01:20Z</time>
      </trkpt>
      <trkpt lat="51.228166256959" lon="4.445696225198">
        <ele>0</ele>
        <time>2020-05-31T12:01:35Z</time>
      </trkpt>
      <trkpt lat="51.228443697849" lon="4.444942357112">
        <ele>1.2</ele>
        <time>2020-05-31T12:01:50Z</time>
      </trkpt>
      <trkpt lat="51.228804203368" lon="4.444304075427">
        <ele>0.8</ele>
        <time>2020-05-31T12:02:05Z</time>
      </trkpt>
      <trkpt lat="51.229288425731" lon="4.443895206345">
        <ele>1</ele>
        <time>2020-05-31T12:02:22Z</time>
      </trkpt>
      <trkpt lat="51.229462601613" lon="4.443872323758">
        <ele>0.4</ele>
        <time>2020-05-31T12:02:29Z</time>
      </trkpt>
      <trkpt lat="51.229681536841" lon="4.444662066376">
        <ele>0</ele>
        <time>2020-05-31T12:02:51Z</time>
      </trkpt>
      <trkpt lat="51.229460506138" lon="4.445395063531">
        <ele>5.4</ele>
        <time>2020-05-31T12:03:12Z</time>
      </trkpt>
      <trkpt lat="51.229045602088" lon="4.446020688547">
        <ele>9.6</ele>
        <time>2020-05-31T12:03:28Z</time>
      </trkpt>
      <trkpt lat="51.228625249803" lon="4.446635920007">
        <ele>12.6</ele>
        <time>2020-05-31T12:03:44Z</time>
      </trkpt>
      <trkpt lat="51.228219398205" lon="4.447241512282">
        <ele>11.2</ele>
        <time>2020-05-31T12:04:01Z</time>
      </trkpt>
      <trkpt lat="51.227814384797" lon="4.447867472574">
        <ele>8</ele>
        <time>2020-05-31T12:04:19Z</time>
      </trkpt>
      <trkpt lat="51.227411299226" lon="4.448469460632">
        <ele>6</ele>
        <time>2020-05-31T12:04:36Z</time>
      </trkpt>
      <trkpt lat="51.22711927383" lon="4.449027192258">
        <ele>4.4</ele>
        <time>2020-05-31T12:04:54Z</time>
      </trkpt>
      <trkpt lat="51.227476510408" lon="4.448337529526">
        <ele>1</ele>
        <time>2020-05-31T12:05:10Z</time>
      </trkpt>
      <trkpt lat="51.227832238244" lon="4.447656667789">
        <ele>5</ele>
        <time>2020-05-31T12:05:25Z</time>
      </trkpt>
      <trkpt lat="51.228165418769" lon="4.447082842915">
        <ele>8.2</ele>
        <time>2020-05-31T12:05:38Z</time>
      </trkpt>
      <trkpt lat="51.228248734855" lon="4.447111006099">
        <ele>7.2</ele>
        <time>2020-05-31T12:05:40Z</time>
      </trkpt>
      <trkpt lat="51.228674535375" lon="4.447686674991">
        <ele>3.6</ele>
        <time>2020-05-31T12:05:52Z</time>
      </trkpt>
      <trkpt lat="51.2290160978" lon="4.448336020784">
        <ele>3.8</ele>
        <time>2020-05-31T12:06:10Z</time>
      </trkpt>
      <trkpt lat="51.229047529925" lon="4.448538527488">
        <ele>2.4</ele>
        <time>2020-05-31T12:06:18Z</time>
      </trkpt>
      <trkpt lat="51.228954574654" lon="4.448650258215">
        <ele>0</ele>
        <time>2020-05-31T12:06:23Z</time>
      </trkpt>
    </trkseg>
  </trk>
</gpx>